createdAt,value
2022-12-24T00:00:10.229Z,8.32
2022-12-24T00:01:10.152Z,8.32
2022-12-24T00:02:10.308Z,8.32
2022-12-24T00:03:10.282Z,8.32
2022-12-24T00:04:10.144Z,8.32
2022-12-24T00:05:10.141Z,8.32
2022-12-24T00:06:10.144Z,8.29
2022-12-24T00:07:10.092Z,8.31
2022-12-24T00:08:10.098Z,8.28
2022-12-24T00:09:10.076Z,8.34
2022-12-24T00:10:10.080Z,8.34
2022-12-24T00:11:10.039Z,8.31
2022-12-24T00:12:10.041Z,8.29
2022-12-24T00:13:10.054Z,8.34
2022-12-24T00:14:10.011Z,8.32
2022-12-24T00:15:10.000Z,8.34
2022-12-24T00:16:09.993Z,8.35
2022-12-24T00:17:10.076Z,8.35
2022-12-24T00:18:09.988Z,8.32
2022-12-24T00:19:09.956Z,8.32
2022-12-24T00:20:09.959Z,8.32
2022-12-24T00:21:09.934Z,8.32
2022-12-24T00:22:10.533Z,8.26
2022-12-24T00:23:09.915Z,8.28
2022-12-24T00:24:09.938Z,8.28
2022-12-24T00:25:09.895Z,8.37
2022-12-24T00:26:09.880Z,8.28
2022-12-24T00:27:09.871Z,8.35
2022-12-24T00:28:09.871Z,8.32
2022-12-24T00:29:09.856Z,8.32
2022-12-24T00:30:09.861Z,8.28
2022-12-24T00:31:09.951Z,8.32
2022-12-24T00:32:09.850Z,8.31
2022-12-24T00:33:09.805Z,8.29
2022-12-24T00:34:09.804Z,8.29
2022-12-24T00:35:09.785Z,8.29
2022-12-24T00:36:09.790Z,8.24
2022-12-24T00:37:09.785Z,8.24
2022-12-24T00:38:09.770Z,8.31
2022-12-24T00:39:09.747Z,8.21
2022-12-24T00:40:09.730Z,8.29
2022-12-24T00:41:09.720Z,8.24
2022-12-24T00:42:09.740Z,8.31
2022-12-24T00:43:09.699Z,8.24
2022-12-24T00:44:09.693Z,8.24
2022-12-24T00:45:09.692Z,8.32
2022-12-24T00:46:09.706Z,8.24
2022-12-24T00:47:12.164Z,8.24
2022-12-24T00:48:09.663Z,8.32
2022-12-24T00:49:09.641Z,8.21
2022-12-24T00:50:09.627Z,8.26
2022-12-24T00:51:09.669Z,8.24
2022-12-24T00:52:09.627Z,8.23
2022-12-24T00:53:09.612Z,8.26
2022-12-24T00:54:09.605Z,8.26
2022-12-24T00:55:09.570Z,8.19
2022-12-24T00:56:09.554Z,8.20
2022-12-24T00:57:09.574Z,8.20
2022-12-24T00:58:09.535Z,8.19
2022-12-24T00:59:09.535Z,8.23
2022-12-24T01:00:09.514Z,8.23
2022-12-24T01:01:09.595Z,8.14
2022-12-24T01:02:09.797Z,8.17
2022-12-24T01:03:09.628Z,8.21
2022-12-24T01:04:09.475Z,8.24
2022-12-24T01:05:09.467Z,8.23
2022-12-24T01:06:09.452Z,8.17
2022-12-24T01:07:09.443Z,8.26
2022-12-24T01:08:09.449Z,8.21
2022-12-24T01:09:09.422Z,8.23
2022-12-24T01:10:09.424Z,8.26
2022-12-24T01:11:09.407Z,8.23
2022-12-24T01:12:09.383Z,8.19
2022-12-24T01:13:09.399Z,8.17
2022-12-24T01:14:09.357Z,8.21
2022-12-24T01:15:09.352Z,8.19
2022-12-24T01:16:09.352Z,8.24
2022-12-24T01:17:09.337Z,8.14
2022-12-24T01:18:09.347Z,8.13
2022-12-24T01:19:09.317Z,8.23
2022-12-24T01:20:09.322Z,8.23
2022-12-24T01:21:09.285Z,8.20
2022-12-24T01:22:09.275Z,8.13
2022-12-24T01:23:09.287Z,8.10
2022-12-24T01:24:09.255Z,8.14
2022-12-24T01:25:09.243Z,8.16
2022-12-24T01:26:09.266Z,8.10
2022-12-24T01:27:09.227Z,8.13
2022-12-24T01:28:09.240Z,8.16
2022-12-24T01:29:09.203Z,8.13
2022-12-24T01:30:09.218Z,8.10
2022-12-24T01:31:09.258Z,8.13
2022-12-24T01:32:09.164Z,8.14
2022-12-24T01:33:09.163Z,8.13
2022-12-24T01:34:09.162Z,8.12
2022-12-24T01:35:09.142Z,8.16
2022-12-24T01:36:09.152Z,8.13
2022-12-24T01:37:09.123Z,8.14
2022-12-24T01:38:09.118Z,8.17
2022-12-24T01:39:09.099Z,8.14
2022-12-24T01:40:09.079Z,8.12
2022-12-24T01:41:09.098Z,8.13
2022-12-24T01:42:09.085Z,8.16
2022-12-24T01:43:09.053Z,8.13
2022-12-24T01:44:09.038Z,8.14
2022-12-24T01:45:09.052Z,8.09
2022-12-24T01:46:09.146Z,8.09
2022-12-24T01:47:09.007Z,8.13
2022-12-24T01:48:09.012Z,8.16
2022-12-24T01:49:08.993Z,8.13
2022-12-24T01:50:08.985Z,8.12
2022-12-24T01:51:08.991Z,8.10
2022-12-24T01:52:08.959Z,8.13
2022-12-24T01:53:08.963Z,8.12
2022-12-24T01:54:08.932Z,8.17
2022-12-24T01:55:08.931Z,8.16
2022-12-24T01:56:08.938Z,8.06
2022-12-24T01:57:08.905Z,8.12
2022-12-24T01:58:08.907Z,8.14
2022-12-24T01:59:08.907Z,8.13
2022-12-24T02:00:08.868Z,8.12
2022-12-24T02:01:09.054Z,8.12
2022-12-24T02:02:09.039Z,8.16
2022-12-24T02:03:09.054Z,8.12
2022-12-24T02:04:08.825Z,8.10
2022-12-24T02:05:08.840Z,8.14
2022-12-24T02:06:08.804Z,8.04
2022-12-24T02:07:08.813Z,8.13
2022-12-24T02:08:08.794Z,8.09
2022-12-24T02:09:08.805Z,8.09
2022-12-24T02:10:08.754Z,8.06
2022-12-24T02:11:08.752Z,8.09
2022-12-24T02:12:08.762Z,8.10
2022-12-24T02:13:08.754Z,8.10
2022-12-24T02:14:08.739Z,8.05
2022-12-24T02:15:08.709Z,8.05
2022-12-24T02:16:08.750Z,8.09
2022-12-24T02:17:08.714Z,8.10
2022-12-24T02:18:08.671Z,8.04
2022-12-24T02:19:08.683Z,8.05
2022-12-24T02:20:08.649Z,8.06
2022-12-24T02:21:08.643Z,8.09
2022-12-24T02:22:08.634Z,8.09
2022-12-24T02:23:08.622Z,8.05
2022-12-24T02:24:08.638Z,8.06
2022-12-24T02:25:08.598Z,8.13
2022-12-24T02:26:08.592Z,8.13
2022-12-24T02:27:08.600Z,8.01
2022-12-24T02:28:08.570Z,8.05
2022-12-24T02:29:08.555Z,8.10
2022-12-24T02:30:08.563Z,7.98
2022-12-24T02:31:08.640Z,8.14
2022-12-24T02:32:08.535Z,8.09
2022-12-24T02:33:08.520Z,8.04
2022-12-24T02:34:08.503Z,7.99
2022-12-24T02:35:08.504Z,8.12
2022-12-24T02:36:08.479Z,8.04
2022-12-24T02:37:08.498Z,8.02
2022-12-24T02:38:08.459Z,8.04
2022-12-24T02:39:08.454Z,7.96
2022-12-24T02:40:15.731Z,8.01
2022-12-24T02:41:09.427Z,7.99
2022-12-24T02:42:08.437Z,8.12
2022-12-24T02:43:08.407Z,8.02
2022-12-24T02:44:08.411Z,8.02
2022-12-24T02:45:08.382Z,7.99
2022-12-24T02:46:08.518Z,8.04
2022-12-24T02:47:08.520Z,7.94
2022-12-24T02:48:08.354Z,7.99
2022-12-24T02:49:08.339Z,8.05
2022-12-24T02:50:08.328Z,8.05
2022-12-24T02:51:08.336Z,8.04
2022-12-24T02:52:08.313Z,8.01
2022-12-24T02:53:08.322Z,8.02
2022-12-24T02:54:08.282Z,8.01
2022-12-24T02:55:08.288Z,7.99
2022-12-24T02:56:08.306Z,8.02
2022-12-24T02:57:08.267Z,8.05
2022-12-24T02:58:08.235Z,8.01
2022-12-24T02:59:08.243Z,8.05
2022-12-24T03:00:08.235Z,8.04
2022-12-24T03:01:08.419Z,7.99
2022-12-24T03:02:08.343Z,8.01
2022-12-24T03:03:08.414Z,8.04
2022-12-24T03:04:08.178Z,8.01
2022-12-24T03:05:08.171Z,7.95
2022-12-24T03:06:08.158Z,7.96
2022-12-24T03:07:08.169Z,7.95
2022-12-24T03:08:08.132Z,8.04
2022-12-24T03:09:08.142Z,7.98
2022-12-24T03:10:08.141Z,7.95
2022-12-24T03:11:08.109Z,7.98
2022-12-24T03:12:08.119Z,8.01
2022-12-24T03:13:08.082Z,7.96
2022-12-24T03:14:08.069Z,7.95
2022-12-24T03:15:08.057Z,7.96
2022-12-24T03:16:08.111Z,7.94
2022-12-24T03:17:08.070Z,7.96
2022-12-24T03:18:08.051Z,7.92
2022-12-24T03:19:08.012Z,7.96
2022-12-24T03:20:08.005Z,7.98
2022-12-24T03:21:08.001Z,7.98
2022-12-24T03:22:08.003Z,8.01
2022-12-24T03:23:07.974Z,8.06
2022-12-24T03:24:07.967Z,7.96
2022-12-24T03:25:07.990Z,7.98
2022-12-24T03:26:07.973Z,7.96
2022-12-24T03:27:07.935Z,7.92
2022-12-24T03:28:07.917Z,7.95
2022-12-24T03:29:07.915Z,7.92
2022-12-24T03:30:07.895Z,7.99
2022-12-24T03:31:07.966Z,8.02
2022-12-24T03:32:07.874Z,7.98
2022-12-24T03:33:07.867Z,7.94
2022-12-24T03:34:07.872Z,7.94
2022-12-24T03:35:07.848Z,8.02
2022-12-24T03:36:07.854Z,7.95
2022-12-24T03:37:07.817Z,7.98
2022-12-24T03:38:07.822Z,7.94
2022-12-24T03:39:07.801Z,7.99
2022-12-24T03:40:07.783Z,7.98
2022-12-24T03:41:07.798Z,7.92
2022-12-24T03:42:07.766Z,7.92
2022-12-24T03:43:07.757Z,7.99
2022-12-24T03:44:07.743Z,7.86
2022-12-24T03:45:07.752Z,8.01
2022-12-24T03:46:07.994Z,7.95
2022-12-24T03:47:07.710Z,7.94
2022-12-24T03:48:07.703Z,7.87
2022-12-24T03:49:07.689Z,7.98
2022-12-24T03:50:07.721Z,7.92
2022-12-24T03:51:07.682Z,7.98
2022-12-24T03:52:07.678Z,7.96
2022-12-24T03:53:07.648Z,7.98
2022-12-24T03:54:07.634Z,7.87
2022-12-24T03:55:07.685Z,7.87
2022-12-24T03:56:07.616Z,7.91
2022-12-24T03:57:07.610Z,7.86
2022-12-24T03:58:07.616Z,7.94
2022-12-24T03:59:07.591Z,7.95
2022-12-24T04:00:07.569Z,7.91
2022-12-24T04:01:07.773Z,7.94
2022-12-24T04:02:07.693Z,7.99
2022-12-24T04:03:07.655Z,7.84
2022-12-24T04:04:07.533Z,7.84
2022-12-24T04:05:07.521Z,7.83
2022-12-24T04:06:07.523Z,7.91
2022-12-24T04:07:07.502Z,7.87
2022-12-24T04:08:07.506Z,7.94
2022-12-24T04:09:07.478Z,7.84
2022-12-24T04:10:07.475Z,7.84
2022-12-24T04:11:09.953Z,7.88
2022-12-24T04:12:07.448Z,7.91
2022-12-24T04:13:07.469Z,7.94
2022-12-24T04:14:07.419Z,7.86
2022-12-24T04:15:07.408Z,7.87
2022-12-24T04:16:07.501Z,7.88
2022-12-24T04:17:07.391Z,7.87
2022-12-24T04:18:07.414Z,7.87
2022-12-24T04:19:07.380Z,7.95
2022-12-24T04:20:07.355Z,7.88
2022-12-24T04:21:07.347Z,7.87
2022-12-24T04:22:07.352Z,7.95
2022-12-24T04:23:07.382Z,7.88
2022-12-24T04:24:07.329Z,7.88
2022-12-24T04:25:07.301Z,7.88
2022-12-24T04:26:07.287Z,7.88
2022-12-24T04:27:07.302Z,7.86
2022-12-24T04:28:07.287Z,7.91
2022-12-24T04:29:07.281Z,7.87
2022-12-24T04:30:07.244Z,7.91
2022-12-24T04:31:07.235Z,7.87
2022-12-24T04:32:07.308Z,7.84
2022-12-24T04:33:07.219Z,7.88
2022-12-24T04:34:07.219Z,7.92
2022-12-24T04:35:07.205Z,7.87
2022-12-24T04:36:07.177Z,7.87
2022-12-24T04:37:07.188Z,7.92
2022-12-24T04:38:07.174Z,7.77
2022-12-24T04:39:07.182Z,7.84
2022-12-24T04:40:07.174Z,7.91
2022-12-24T04:41:07.127Z,7.86
2022-12-24T04:42:07.108Z,7.88
2022-12-24T04:43:07.102Z,7.76
2022-12-24T04:44:07.090Z,7.87
2022-12-24T04:45:07.104Z,7.92
2022-12-24T04:46:07.117Z,7.92
2022-12-24T04:47:07.059Z,7.88
2022-12-24T04:48:07.043Z,7.91
2022-12-24T04:49:07.036Z,7.87
2022-12-24T04:50:07.044Z,7.88
2022-12-24T04:51:07.013Z,7.83
2022-12-24T04:52:06.999Z,7.80
2022-12-24T04:53:06.991Z,7.92
2022-12-24T04:54:07.001Z,7.88
2022-12-24T04:55:06.992Z,7.87
2022-12-24T04:56:06.958Z,7.83
2022-12-24T04:57:06.943Z,7.78
2022-12-24T04:58:06.952Z,7.86
2022-12-24T04:59:06.928Z,7.86
2022-12-24T05:00:06.947Z,7.77
2022-12-24T05:01:07.079Z,7.78
2022-12-24T05:02:07.068Z,7.91
2022-12-24T05:03:06.933Z,7.88
2022-12-24T05:04:06.947Z,7.91
2022-12-24T05:05:06.880Z,7.81
2022-12-24T05:06:06.861Z,7.74
2022-12-24T05:07:06.839Z,7.87
2022-12-24T05:08:06.833Z,7.87
2022-12-24T05:09:06.831Z,7.81
2022-12-24T05:10:06.850Z,7.80
2022-12-24T05:11:06.811Z,7.76
2022-12-24T05:12:06.786Z,7.78
2022-12-24T05:13:06.766Z,7.78
2022-12-24T05:14:06.760Z,7.76
2022-12-24T05:15:06.756Z,7.81
2022-12-24T05:16:06.766Z,7.91
2022-12-24T05:17:06.778Z,7.84
2022-12-24T05:18:06.720Z,7.76
2022-12-24T05:19:06.703Z,7.80
2022-12-24T05:20:06.709Z,7.76
2022-12-24T05:21:06.714Z,7.76
2022-12-24T05:22:06.675Z,7.77
2022-12-24T05:23:06.665Z,7.92
2022-12-24T05:24:06.658Z,7.80
2022-12-24T05:25:06.638Z,7.80
2022-12-24T05:26:06.689Z,7.73
2022-12-24T05:27:06.629Z,7.76
2022-12-24T05:28:06.616Z,7.80
2022-12-24T05:29:06.592Z,7.76
2022-12-24T05:30:06.628Z,7.80
2022-12-24T05:31:06.668Z,7.83
2022-12-24T05:32:06.575Z,7.80
2022-12-24T05:33:06.567Z,7.78
2022-12-24T05:34:06.549Z,7.80
2022-12-24T05:35:06.532Z,7.81
2022-12-24T05:36:06.542Z,7.76
2022-12-24T05:37:06.512Z,7.77
2022-12-24T05:38:06.504Z,7.74
2022-12-24T05:39:11.519Z,7.83
2022-12-24T05:40:07.477Z,7.76
2022-12-24T05:41:06.525Z,7.77
2022-12-24T05:42:06.481Z,7.78
2022-12-24T05:43:06.470Z,7.76
2022-12-24T05:44:06.442Z,7.76
2022-12-24T05:45:06.422Z,7.83
2022-12-24T05:46:06.434Z,7.80
2022-12-24T05:47:06.397Z,7.83
2022-12-24T05:48:06.415Z,7.78
2022-12-24T05:49:06.400Z,7.83
2022-12-24T05:50:06.375Z,7.78
2022-12-24T05:51:06.363Z,7.77
2022-12-24T05:52:06.370Z,7.83
2022-12-24T05:53:06.334Z,7.83
2022-12-24T05:54:06.357Z,7.80
2022-12-24T05:55:06.317Z,7.78
2022-12-24T05:56:06.303Z,7.77
2022-12-24T05:57:06.313Z,7.83
2022-12-24T05:58:06.320Z,7.76
2022-12-24T05:59:06.279Z,7.84
2022-12-24T06:00:06.262Z,7.76
2022-12-24T06:01:06.309Z,7.78
2022-12-24T06:02:06.310Z,7.83
2022-12-24T06:03:06.307Z,7.76
2022-12-24T06:04:06.291Z,7.80
2022-12-24T06:05:06.260Z,7.77
2022-12-24T06:06:06.200Z,7.73
2022-12-24T06:07:06.211Z,7.74
2022-12-24T06:08:06.205Z,7.80
2022-12-24T06:09:06.171Z,7.81
2022-12-24T06:10:06.160Z,7.77
2022-12-24T06:11:06.149Z,7.78
2022-12-24T06:12:06.128Z,7.81
2022-12-24T06:13:06.117Z,7.78
2022-12-24T06:14:06.153Z,7.76
2022-12-24T06:15:06.095Z,7.76
2022-12-24T06:16:06.181Z,7.76
2022-12-24T06:17:06.074Z,7.69
2022-12-24T06:18:06.078Z,7.76
2022-12-24T06:19:06.074Z,7.77
2022-12-24T06:20:06.045Z,7.74
2022-12-24T06:21:06.027Z,7.80
2022-12-24T06:22:06.047Z,7.80
2022-12-24T06:23:06.006Z,7.78
2022-12-24T06:24:06.001Z,7.76
2022-12-24T06:25:05.987Z,7.74
2022-12-24T06:26:05.983Z,7.83
2022-12-24T06:27:05.992Z,7.74
2022-12-24T06:28:05.952Z,7.81
2022-12-24T06:29:05.944Z,7.78
2022-12-24T06:30:05.960Z,7.74
2022-12-24T06:31:06.015Z,7.81
2022-12-24T06:32:05.944Z,7.71
2022-12-24T06:33:05.907Z,7.74
2022-12-24T06:34:05.908Z,7.71
2022-12-24T06:35:05.893Z,7.64
2022-12-24T06:36:07.432Z,7.71
2022-12-24T06:37:05.852Z,7.61
2022-12-24T06:38:05.864Z,7.73
2022-12-24T06:39:05.832Z,7.69
2022-12-24T06:40:05.825Z,7.77
2022-12-24T06:41:05.809Z,7.66
2022-12-24T06:42:05.808Z,7.73
2022-12-24T06:43:05.822Z,7.74
2022-12-24T06:44:05.790Z,7.71
2022-12-24T06:45:08.465Z,7.73
2022-12-24T06:46:05.852Z,7.71
2022-12-24T06:47:05.752Z,7.62
2022-12-24T06:48:05.760Z,7.69
2022-12-24T06:49:05.725Z,7.74
2022-12-24T06:50:05.716Z,7.74
2022-12-24T06:51:05.711Z,7.71
2022-12-24T06:52:05.708Z,7.71
2022-12-24T06:53:05.701Z,7.76
2022-12-24T06:54:05.672Z,7.74
2022-12-24T06:55:05.672Z,7.62
2022-12-24T06:56:05.649Z,7.73
2022-12-24T06:57:05.635Z,7.62
2022-12-24T06:58:05.625Z,7.68
2022-12-24T06:59:05.842Z,7.74
2022-12-24T07:00:05.600Z,7.71
2022-12-24T07:01:05.618Z,7.74
2022-12-24T07:02:05.754Z,7.68
2022-12-24T07:03:05.568Z,7.66
2022-12-24T07:04:05.610Z,7.64
2022-12-24T07:05:05.547Z,7.71
2022-12-24T07:06:05.551Z,7.80
2022-12-24T07:07:05.543Z,7.78
2022-12-24T07:08:05.539Z,7.61
2022-12-24T07:09:05.500Z,7.61
2022-12-24T07:10:05.492Z,7.60
2022-12-24T07:11:05.531Z,7.73
2022-12-24T07:12:05.491Z,7.74
2022-12-24T07:13:05.460Z,7.77
2022-12-24T07:14:05.459Z,7.62
2022-12-24T07:15:05.439Z,7.73
2022-12-24T07:16:05.640Z,7.73
2022-12-24T07:17:05.578Z,7.66
2022-12-24T07:18:05.448Z,7.68
2022-12-24T07:19:05.396Z,7.76
2022-12-24T07:20:05.387Z,7.66
2022-12-24T07:21:05.379Z,7.81
2022-12-24T07:22:10.233Z,7.80
2022-12-24T07:23:06.393Z,7.68
2022-12-24T07:24:05.341Z,7.60
2022-12-24T07:25:05.331Z,7.64
2022-12-24T07:26:05.327Z,7.69
2022-12-24T07:27:05.309Z,7.62
2022-12-24T07:28:05.315Z,7.77
2022-12-24T07:29:05.286Z,7.73
2022-12-24T07:30:05.328Z,7.74
2022-12-24T07:31:05.354Z,7.73
2022-12-24T07:32:05.254Z,7.74
2022-12-24T07:33:05.239Z,7.77
2022-12-24T07:34:05.262Z,7.74
2022-12-24T07:35:05.256Z,7.66
2022-12-24T07:36:05.233Z,7.73
2022-12-24T07:37:05.205Z,7.71
2022-12-24T07:38:05.186Z,7.80
2022-12-24T07:39:05.180Z,7.69
2022-12-24T07:40:05.167Z,7.71
2022-12-24T07:41:05.179Z,7.66
2022-12-24T07:42:05.146Z,7.68
2022-12-24T07:43:05.134Z,7.74
2022-12-24T07:44:05.126Z,7.71
2022-12-24T07:45:05.108Z,7.76
2022-12-24T07:46:05.143Z,7.77
2022-12-24T07:47:05.171Z,7.68
2022-12-24T07:48:05.076Z,7.73
2022-12-24T07:49:05.088Z,7.66
2022-12-24T07:50:05.074Z,7.74
2022-12-24T07:51:05.050Z,7.77
2022-12-24T07:52:05.030Z,7.68
2022-12-24T07:53:05.027Z,7.71
2022-12-24T07:54:05.074Z,7.71
2022-12-24T07:55:05.046Z,7.64
2022-12-24T07:56:09.029Z,7.64
2022-12-24T07:57:05.978Z,7.74
2022-12-24T07:58:04.994Z,7.74
2022-12-24T07:59:06.001Z,7.78
2022-12-24T08:00:04.955Z,7.76
2022-12-24T08:01:05.016Z,7.64
2022-12-24T08:02:05.170Z,7.74
2022-12-24T08:03:05.021Z,7.77
2022-12-24T08:04:04.961Z,7.73
2022-12-24T08:05:04.914Z,7.74
2022-12-24T08:06:04.897Z,7.73
2022-12-24T08:07:04.870Z,7.66
2022-12-24T08:08:04.859Z,7.74
2022-12-24T08:09:04.842Z,7.68
2022-12-24T08:10:04.882Z,7.77
2022-12-24T08:11:04.838Z,7.74
2022-12-24T08:12:04.815Z,7.68
2022-12-24T08:13:04.800Z,7.69
2022-12-24T08:14:04.859Z,7.73
2022-12-24T08:15:04.780Z,7.68
2022-12-24T08:16:04.831Z,7.69
2022-12-24T08:17:04.766Z,7.77
2022-12-24T08:18:04.750Z,7.68
2022-12-24T08:19:04.755Z,7.69
2022-12-24T08:20:04.726Z,7.66
2022-12-24T08:21:04.711Z,7.68
2022-12-24T08:22:04.728Z,7.68
2022-12-24T08:23:04.702Z,7.73
2022-12-24T08:24:04.709Z,7.73
2022-12-24T08:25:04.668Z,7.74
2022-12-24T08:26:04.657Z,7.76
2022-12-24T08:27:04.643Z,7.71
2022-12-24T08:28:04.644Z,7.74
2022-12-24T08:29:04.654Z,7.71
2022-12-24T08:30:04.647Z,7.66
2022-12-24T08:31:04.643Z,7.74
2022-12-24T08:32:04.758Z,7.73
2022-12-24T08:33:04.579Z,7.74
2022-12-24T08:34:04.579Z,7.69
2022-12-24T08:35:04.580Z,7.64
2022-12-24T08:36:04.555Z,7.73
2022-12-24T08:37:04.537Z,7.76
2022-12-24T08:38:04.565Z,7.74
2022-12-24T08:39:04.518Z,7.76
2022-12-24T08:40:04.531Z,7.76
2022-12-24T08:41:04.488Z,7.74
2022-12-24T08:42:04.519Z,7.77
2022-12-24T08:43:04.507Z,7.76
2022-12-24T08:44:04.498Z,7.71
2022-12-24T08:45:04.543Z,7.58
2022-12-24T08:46:04.535Z,7.71
2022-12-24T08:47:04.424Z,7.73
2022-12-24T08:48:04.419Z,7.64
2022-12-24T08:49:04.401Z,7.76
2022-12-24T08:50:04.411Z,7.73
2022-12-24T08:51:04.386Z,7.76
2022-12-24T08:52:04.377Z,7.73
2022-12-24T08:53:04.371Z,7.77
2022-12-24T08:54:04.380Z,7.71
2022-12-24T08:55:04.363Z,7.77
2022-12-24T08:56:04.336Z,7.69
2022-12-24T08:57:04.320Z,7.62
2022-12-24T08:58:04.337Z,7.73
2022-12-24T08:59:04.292Z,7.78
2022-12-24T09:00:04.323Z,7.69
2022-12-24T09:01:04.459Z,7.74
2022-12-24T09:02:04.432Z,7.74
2022-12-24T09:03:04.359Z,7.76
2022-12-24T09:04:04.240Z,7.66
2022-12-24T09:05:04.227Z,7.64
2022-12-24T09:06:04.246Z,7.69
2022-12-24T09:07:04.207Z,7.74
2022-12-24T09:08:04.196Z,7.73
2022-12-24T09:09:04.199Z,7.76
2022-12-24T09:10:04.184Z,7.71
2022-12-24T09:11:04.178Z,7.68
2022-12-24T09:12:04.147Z,7.73
2022-12-24T09:13:04.137Z,7.64
2022-12-24T09:14:04.132Z,7.68
2022-12-24T09:15:04.597Z,7.61
2022-12-24T09:16:04.190Z,7.68
2022-12-24T09:17:04.169Z,7.64
2022-12-24T09:18:04.083Z,7.77
2022-12-24T09:19:04.080Z,7.73
2022-12-24T09:20:04.059Z,7.66
2022-12-24T09:21:04.071Z,7.78
2022-12-24T09:22:04.037Z,7.77
2022-12-24T09:23:04.036Z,7.69
2022-12-24T09:24:04.016Z,7.76
2022-12-24T09:25:04.016Z,7.77
2022-12-24T09:26:04.034Z,7.77
2022-12-24T09:27:03.989Z,7.80
2022-12-24T09:28:03.984Z,7.81
2022-12-24T09:29:03.963Z,7.83
2022-12-24T09:30:03.961Z,7.78
2022-12-24T09:31:03.987Z,7.73
2022-12-24T09:32:03.963Z,7.78
2022-12-24T09:33:03.917Z,7.80
2022-12-24T09:34:03.904Z,7.78
2022-12-24T09:35:03.917Z,7.77
2022-12-24T09:36:03.911Z,7.76
2022-12-24T09:37:03.882Z,7.74
2022-12-24T09:38:03.884Z,7.78
2022-12-24T09:39:03.858Z,7.83
2022-12-24T09:40:03.861Z,7.78
2022-12-24T09:41:08.782Z,7.88
2022-12-24T09:42:04.870Z,7.77
2022-12-24T09:43:03.808Z,7.78
2022-12-24T09:44:03.795Z,7.81
2022-12-24T09:45:03.802Z,7.77
2022-12-24T09:46:03.818Z,7.88
2022-12-24T09:47:08.254Z,7.86
2022-12-24T09:48:04.750Z,7.78
2022-12-24T09:49:03.745Z,7.91
2022-12-24T09:50:03.768Z,7.78
2022-12-24T09:51:03.726Z,7.78
2022-12-24T09:52:03.721Z,7.88
2022-12-24T09:53:03.708Z,7.92
2022-12-24T09:54:03.700Z,7.87
2022-12-24T09:55:03.767Z,7.73
2022-12-24T09:56:03.665Z,7.94
2022-12-24T09:57:03.677Z,7.74
2022-12-24T09:58:03.681Z,7.92
2022-12-24T09:59:03.633Z,7.88
2022-12-24T10:00:03.623Z,7.88
2022-12-24T10:01:03.742Z,7.86
2022-12-24T10:02:03.847Z,7.87
2022-12-24T10:03:03.685Z,7.91
2022-12-24T10:04:03.618Z,7.94
2022-12-24T10:05:03.573Z,7.88
2022-12-24T10:06:03.558Z,7.86
2022-12-24T10:07:03.595Z,7.96
2022-12-24T10:08:03.552Z,7.95
2022-12-24T10:09:03.534Z,7.94
2022-12-24T10:10:03.545Z,7.86
2022-12-24T10:11:03.513Z,7.92
2022-12-24T10:12:03.498Z,7.84
2022-12-24T10:13:03.513Z,7.84
2022-12-24T10:14:03.504Z,7.87
2022-12-24T10:15:03.477Z,7.98
2022-12-24T10:16:03.473Z,7.88
2022-12-24T10:17:03.505Z,7.87
2022-12-24T10:18:03.450Z,7.84
2022-12-24T10:19:03.418Z,7.86
2022-12-24T10:20:03.415Z,7.94
2022-12-24T10:21:03.399Z,7.86
2022-12-24T10:22:03.392Z,7.96
2022-12-24T10:23:03.398Z,7.95
2022-12-24T10:24:03.384Z,7.94
2022-12-24T10:25:03.354Z,7.98
2022-12-24T10:26:03.337Z,7.92
2022-12-24T10:27:03.333Z,7.98
2022-12-24T10:28:03.320Z,7.98
2022-12-24T10:29:03.325Z,7.96
2022-12-24T10:30:03.337Z,7.95
2022-12-24T10:31:03.476Z,8.01
2022-12-24T10:32:03.274Z,7.99
2022-12-24T10:33:03.269Z,7.98
2022-12-24T10:34:03.275Z,7.98
2022-12-24T10:35:03.270Z,7.94
2022-12-24T10:36:09.811Z,7.98
2022-12-24T10:37:04.218Z,7.92
2022-12-24T10:38:03.208Z,7.92
2022-12-24T10:39:03.204Z,7.95
2022-12-24T10:40:03.213Z,7.94
2022-12-24T10:41:03.175Z,8.01
2022-12-24T10:42:03.163Z,7.95
2022-12-24T10:43:03.155Z,7.96
2022-12-24T10:44:03.162Z,7.98
2022-12-24T10:45:03.147Z,8.09
2022-12-24T10:46:03.217Z,7.98
2022-12-24T10:47:03.123Z,7.98
2022-12-24T10:48:03.102Z,8.01
2022-12-24T10:49:03.123Z,8.05
2022-12-24T10:50:03.106Z,8.01
2022-12-24T10:51:03.088Z,8.02
2022-12-24T10:52:03.058Z,8.04
2022-12-24T10:53:03.050Z,8.02
2022-12-24T10:54:03.038Z,8.02
2022-12-24T10:55:03.044Z,8.05
2022-12-24T10:56:03.020Z,8.04
2022-12-24T10:57:03.037Z,7.99
2022-12-24T10:58:02.999Z,7.99
2022-12-24T10:59:02.981Z,7.99
2022-12-24T11:00:02.967Z,7.98
2022-12-24T11:01:03.230Z,8.04
2022-12-24T11:02:03.233Z,8.01
2022-12-24T11:03:03.111Z,8.13
2022-12-24T11:04:02.927Z,8.12
2022-12-24T11:05:02.950Z,8.10
2022-12-24T11:06:02.925Z,8.16
2022-12-24T11:07:02.943Z,8.14
2022-12-24T11:08:02.885Z,8.10
2022-12-24T11:09:02.874Z,8.14
2022-12-24T11:10:02.870Z,8.09
2022-12-24T11:11:02.858Z,8.10
2022-12-24T11:12:08.639Z,8.09
2022-12-24T11:13:27.775Z,8.14
2022-12-24T11:14:03.821Z,8.10
2022-12-24T11:15:02.816Z,8.13
2022-12-24T11:16:02.858Z,8.09
2022-12-24T11:17:02.816Z,8.12
2022-12-24T11:18:02.797Z,8.13
2022-12-24T11:19:02.774Z,8.13
2022-12-24T11:20:02.761Z,8.12
2022-12-24T11:21:02.772Z,8.14
2022-12-24T11:22:02.728Z,8.10
2022-12-24T11:23:02.751Z,8.13
2022-12-24T11:24:02.712Z,8.13
2022-12-24T11:25:02.707Z,8.13
2022-12-24T11:26:02.691Z,8.13
2022-12-24T11:27:02.679Z,8.20
2022-12-24T11:28:02.692Z,8.13
2022-12-24T11:29:02.678Z,8.13
2022-12-24T11:30:07.979Z,8.19
2022-12-24T11:31:03.713Z,8.19
2022-12-24T11:32:02.623Z,8.21
2022-12-24T11:33:02.645Z,8.24
2022-12-24T11:34:02.624Z,8.26
2022-12-24T11:35:02.597Z,8.21
2022-12-24T11:36:02.582Z,8.23
2022-12-24T11:37:02.603Z,8.23
2022-12-24T11:38:02.562Z,8.24
2022-12-24T11:39:02.553Z,8.28
2022-12-24T11:40:02.553Z,8.31
2022-12-24T11:41:02.533Z,8.31
2022-12-24T11:42:02.538Z,8.29
2022-12-24T11:43:02.532Z,8.29
2022-12-24T11:44:02.495Z,8.32
2022-12-24T11:45:02.492Z,8.35
2022-12-24T11:46:02.535Z,8.35
2022-12-24T11:47:02.469Z,8.29
2022-12-24T11:48:02.472Z,8.24
2022-12-24T11:49:07.585Z,8.35
2022-12-24T11:50:18.307Z,8.28
2022-12-24T11:51:03.439Z,8.35
2022-12-24T11:52:02.449Z,8.34
2022-12-24T11:53:02.443Z,8.37
2022-12-24T11:54:02.387Z,8.31
2022-12-24T11:55:02.384Z,8.35
2022-12-24T11:56:02.369Z,8.29
2022-12-24T11:57:02.382Z,8.35
2022-12-24T11:58:02.367Z,8.38
2022-12-24T11:59:02.352Z,8.26
2022-12-24T12:00:02.354Z,8.24
2022-12-24T12:01:02.541Z,8.41
2022-12-24T12:02:02.416Z,8.28
2022-12-24T12:03:02.463Z,8.44
2022-12-24T12:04:02.369Z,8.42
2022-12-24T12:05:02.296Z,8.35
2022-12-24T12:06:02.278Z,8.38
2022-12-24T12:07:02.255Z,8.39
2022-12-24T12:08:02.280Z,8.42
2022-12-24T12:09:02.237Z,8.39
2022-12-24T12:10:02.224Z,8.42
2022-12-24T12:11:02.209Z,8.38
2022-12-24T12:12:02.202Z,8.46
2022-12-24T12:13:02.187Z,8.38
2022-12-24T12:14:02.194Z,8.47
2022-12-24T12:15:02.179Z,8.46
2022-12-24T12:16:02.233Z,8.41
2022-12-24T12:17:02.143Z,8.47
2022-12-24T12:18:02.132Z,8.42
2022-12-24T12:19:02.141Z,8.38
2022-12-24T12:20:02.117Z,8.42
2022-12-24T12:21:02.119Z,8.50
2022-12-24T12:22:02.108Z,8.44
2022-12-24T12:23:02.077Z,8.41
2022-12-24T12:24:02.083Z,8.53
2022-12-24T12:25:02.080Z,8.50
2022-12-24T12:26:02.049Z,8.44
2022-12-24T12:27:02.083Z,8.59
2022-12-24T12:28:02.022Z,8.47
2022-12-24T12:29:02.057Z,8.52
2022-12-24T12:30:02.009Z,8.55
2022-12-24T12:31:02.084Z,8.52
2022-12-24T12:32:02.075Z,8.65
2022-12-24T12:33:02.052Z,8.62
2022-12-24T12:34:02.026Z,8.57
2022-12-24T12:35:01.955Z,8.53
2022-12-24T12:36:01.955Z,8.60
2022-12-24T12:37:01.931Z,8.60
2022-12-24T12:38:01.934Z,8.63
2022-12-24T12:39:01.908Z,8.60
2022-12-24T12:40:01.957Z,8.59
2022-12-24T12:41:01.922Z,8.67
2022-12-24T12:42:01.871Z,8.65
2022-12-24T12:43:01.870Z,8.62
2022-12-24T12:44:01.855Z,8.63
2022-12-24T12:45:01.851Z,8.65
2022-12-24T12:46:01.851Z,8.57
2022-12-24T12:47:01.872Z,8.59
2022-12-24T12:48:01.805Z,8.60
2022-12-24T12:49:03.148Z,8.62
2022-12-24T12:50:01.792Z,8.60
2022-12-24T12:51:01.777Z,8.55
2022-12-24T12:52:01.766Z,8.63
2022-12-24T12:53:01.758Z,8.62
2022-12-24T12:54:01.786Z,8.62
2022-12-24T12:55:01.741Z,8.57
2022-12-24T12:56:01.732Z,8.65
2022-12-24T12:57:01.730Z,8.65
2022-12-24T12:58:01.697Z,8.72
2022-12-24T12:59:01.726Z,8.65
2022-12-24T13:00:01.670Z,8.74
2022-12-24T13:01:01.776Z,8.75
2022-12-24T13:02:01.786Z,8.67
2022-12-24T13:03:01.810Z,8.67
2022-12-24T13:04:01.658Z,8.71
2022-12-24T13:05:01.663Z,8.72
2022-12-24T13:06:01.621Z,8.72
2022-12-24T13:07:01.624Z,8.75
2022-12-24T13:08:01.587Z,8.74
2022-12-24T13:09:01.590Z,8.72
2022-12-24T13:10:01.612Z,8.72
2022-12-24T13:11:01.574Z,8.75
2022-12-24T13:12:01.549Z,8.86
2022-12-24T13:13:01.537Z,8.77
2022-12-24T13:14:01.540Z,8.83
2022-12-24T13:15:01.542Z,8.83
2022-12-24T13:16:01.568Z,8.83
2022-12-24T13:17:01.500Z,8.80
2022-12-24T13:18:01.487Z,8.81